Terminal Aerodrome Forecast
Issued by NWS Charleston, WV

Home | Current Version | Previous Version | Text Only | Print | Product List | Glossary On
Versions: 1 2 3 4 5 6 7 8 9 10 11 12 13 14 15 16 17 18 19 20 21 22 23 24
000
FTUS41 KRLX 070200 AAA
TAFEKN
TAF AMD
KEKN 070238Z 0703/0724 VRB03KT P6SM SCT060
     FM070400 00000KT 6SM BR FEW060
     FM070700 00000KT 1/4SM FG VV001
     FM071200 VRB03KT 3SM BR SCT002
     FM071300 VRB03KT P6SM FEW050
     FM071900 VRB03KT P6SM VCTS BKN040CB=

USA.gov is the U.S. government's official web portal to all federal, state and local government web resources and services.